sensor_id;sensor_type;location;lat;lon;timestamp;P1;durP1;ratioP1;P2;durP2;ratioP2
15155;SDS011;7678;50.058;8.306;2023-02-24T00:01:44;36.07;;;21.67;;
15155;SDS011;7678;50.058;8.306;2023-02-24T00:04:17;37.57;;;22.63;;
15155;SDS011;7678;50.058;8.306;2023-02-24T00:06:46;34.37;;;21.80;;
15155;SDS011;7678;50.058;8.306;2023-02-24T00:09:15;31.17;;;20.70;;
15155;SDS011;7678;50.058;8.306;2023-02-24T00:11:46;35.90;;;21.73;;
15155;SDS011;7678;50.058;8.306;2023-02-24T00:14:18;32.53;;;21.87;;
15155;SDS011;7678;50.058;8.306;2023-02-24T00:16:48;35.30;;;21.57;;
15155;SDS011;7678;50.058;8.306;2023-02-24T00:19:17;34.47;;;21.07;;
15155;SDS011;7678;50.058;8.306;2023-02-24T00:21:48;35.00;;;22.00;;
15155;SDS011;7678;50.058;8.306;2023-02-24T00:24:16;34.83;;;21.33;;
15155;SDS011;7678;50.058;8.306;2023-02-24T00:26:45;33.07;;;21.13;;
15155;SDS011;7678;50.058;8.306;2023-02-24T00:29:19;33.43;;;20.50;;
15155;SDS011;7678;50.058;8.306;2023-02-24T00:31:50;37.07;;;22.57;;
15155;SDS011;7678;50.058;8.306;2023-02-24T00:34:24;33.83;;;20.73;;
15155;SDS011;7678;50.058;8.306;2023-02-24T00:36:53;39.50;;;21.73;;
15155;SDS011;7678;50.058;8.306;2023-02-24T00:39:21;33.87;;;21.40;;
15155;SDS011;7678;50.058;8.306;2023-02-24T00:41:58;34.87;;;21.73;;
15155;SDS011;7678;50.058;8.306;2023-02-24T00:44:31;36.20;;;21.67;;
15155;SDS011;7678;50.058;8.306;2023-02-24T00:47:03;35.60;;;21.80;;
15155;SDS011;7678;50.058;8.306;2023-02-24T00:49:33;34.63;;;21.10;;
15155;SDS011;7678;50.058;8.306;2023-02-24T00:52:08;37.67;;;21.57;;
15155;SDS011;7678;50.058;8.306;2023-02-24T00:54:39;35.20;;;20.93;;
15155;SDS011;7678;50.058;8.306;2023-02-24T00:57:07;35.43;;;20.97;;
15155;SDS011;7678;50.058;8.306;2023-02-24T00:59:36;39.73;;;23.50;;
15155;SDS011;7678;50.058;8.306;2023-02-24T01:02:06;36.10;;;21.73;;
15155;SDS011;7678;50.058;8.306;2023-02-24T01:04:36;34.53;;;21.73;;
15155;SDS011;7678;50.058;8.306;2023-02-24T01:07:05;36.43;;;22.43;;
15155;SDS011;7678;50.058;8.306;2023-02-24T01:09:37;39.20;;;22.53;;
15155;SDS011;7678;50.058;8.306;2023-02-24T01:12:06;36.27;;;21.20;;
15155;SDS011;7678;50.058;8.306;2023-02-24T01:14:52;38.60;;;22.23;;
15155;SDS011;7678;50.058;8.306;2023-02-24T01:17:22;37.93;;;21.97;;
15155;SDS011;7678;50.058;8.306;2023-02-24T01:19:50;39.13;;;22.20;;
15155;SDS011;7678;50.058;8.306;2023-02-24T01:22:20;36.80;;;21.67;;
15155;SDS011;7678;50.058;8.306;2023-02-24T01:24:49;36.60;;;21.97;;
15155;SDS011;7678;50.058;8.306;2023-02-24T01:27:17;38.10;;;22.27;;
15155;SDS011;7678;50.058;8.306;2023-02-24T01:29:45;35.33;;;21.83;;
15155;SDS011;7678;50.058;8.306;2023-02-24T01:32:15;37.37;;;22.50;;
15155;SDS011;7678;50.058;8.306;2023-02-24T01:34:49;37.67;;;21.83;;
15155;SDS011;7678;50.058;8.306;2023-02-24T01:37:18;35.43;;;21.93;;
15155;SDS011;7678;50.058;8.306;2023-02-24T01:39:48;39.50;;;23.67;;
15155;SDS011;7678;50.058;8.306;2023-02-24T01:42:17;38.73;;;21.57;;
15155;SDS011;7678;50.058;8.306;2023-02-24T01:45:03;36.50;;;22.67;;
15155;SDS011;7678;50.058;8.306;2023-02-24T01:47:43;36.17;;;22.13;;
15155;SDS011;7678;50.058;8.306;2023-02-24T01:50:16;39.53;;;22.73;;
15155;SDS011;7678;50.058;8.306;2023-02-24T01:52:47;39.30;;;22.63;;
15155;SDS011;7678;50.058;8.306;2023-02-24T01:55:19;37.27;;;21.53;;
15155;SDS011;7678;50.058;8.306;2023-02-24T01:57:50;38.90;;;21.73;;
15155;SDS011;7678;50.058;8.306;2023-02-24T02:00:20;38.70;;;21.57;;
15155;SDS011;7678;50.058;8.306;2023-02-24T02:03:08;37.37;;;21.67;;
15155;SDS011;7678;50.058;8.306;2023-02-24T02:05:42;39.83;;;22.20;;
15155;SDS011;7678;50.058;8.306;2023-02-24T02:08:14;37.90;;;21.77;;
15155;SDS011;7678;50.058;8.306;2023-02-24T02:10:44;37.47;;;22.23;;
15155;SDS011;7678;50.058;8.306;2023-02-24T02:13:13;39.30;;;22.70;;
15155;SDS011;7678;50.058;8.306;2023-02-24T02:15:49;34.40;;;21.97;;
15155;SDS011;7678;50.058;8.306;2023-02-24T02:18:28;37.97;;;22.87;;
15155;SDS011;7678;50.058;8.306;2023-02-24T02:21:19;45.70;;;25.07;;
15155;SDS011;7678;50.058;8.306;2023-02-24T02:24:26;39.83;;;22.97;;
15155;SDS011;7678;50.058;8.306;2023-02-24T02:27:18;40.47;;;23.67;;
15155;SDS011;7678;50.058;8.306;2023-02-24T02:30:08;38.53;;;22.73;;
15155;SDS011;7678;50.058;8.306;2023-02-24T02:33:08;38.73;;;22.33;;
15155;SDS011;7678;50.058;8.306;2023-02-24T02:36:02;37.27;;;22.90;;
15155;SDS011;7678;50.058;8.306;2023-02-24T02:38:41;34.73;;;21.37;;
15155;SDS011;7678;50.058;8.306;2023-02-24T02:41:21;37.93;;;22.23;;
15155;SDS011;7678;50.058;8.306;2023-02-24T02:43:56;37.73;;;21.90;;
15155;SDS011;7678;50.058;8.306;2023-02-24T02:46:33;36.77;;;22.10;;
15155;SDS011;7678;50.058;8.306;2023-02-24T02:49:39;41.20;;;24.93;;
15155;SDS011;7678;50.058;8.306;2023-02-24T02:52:12;35.97;;;22.13;;
15155;SDS011;7678;50.058;8.306;2023-02-24T02:54:44;39.87;;;22.97;;
15155;SDS011;7678;50.058;8.306;2023-02-24T02:57:16;35.20;;;21.90;;
15155;SDS011;7678;50.058;8.306;2023-02-24T02:59:49;38.23;;;21.80;;
15155;SDS011;7678;50.058;8.306;2023-02-24T03:02:22;38.93;;;22.53;;
15155;SDS011;7678;50.058;8.306;2023-02-24T03:04:55;36.07;;;22.50;;
15155;SDS011;7678;50.058;8.306;2023-02-24T03:07:28;41.23;;;22.70;;
15155;SDS011;7678;50.058;8.306;2023-02-24T03:10:01;36.80;;;21.00;;
15155;SDS011;7678;50.058;8.306;2023-02-24T03:12:37;34.83;;;20.50;;
15155;SDS011;7678;50.058;8.306;2023-02-24T03:15:07;35.33;;;21.87;;
15155;SDS011;7678;50.058;8.306;2023-02-24T03:18:00;32.70;;;20.73;;
15155;SDS011;7678;50.058;8.306;2023-02-24T03:20:56;34.50;;;21.40;;
15155;SDS011;7678;50.058;8.306;2023-02-24T03:23:36;38.40;;;22.13;;
15155;SDS011;7678;50.058;8.306;2023-02-24T03:26:11;34.97;;;21.30;;
15155;SDS011;7678;50.058;8.306;2023-02-24T03:28:47;32.73;;;20.27;;
15155;SDS011;7678;50.058;8.306;2023-02-24T03:31:24;34.83;;;20.30;;
15155;SDS011;7678;50.058;8.306;2023-02-24T03:34:00;35.37;;;20.50;;
15155;SDS011;7678;50.058;8.306;2023-02-24T03:36:32;33.63;;;20.57;;
15155;SDS011;7678;50.058;8.306;2023-02-24T03:39:02;33.10;;;19.33;;
15155;SDS011;7678;50.058;8.306;2023-02-24T03:41:38;31.93;;;19.10;;
15155;SDS011;7678;50.058;8.306;2023-02-24T03:44:11;33.33;;;20.73;;
15155;SDS011;7678;50.058;8.306;2023-02-24T03:46:40;36.50;;;20.90;;
15155;SDS011;7678;50.058;8.306;2023-02-24T03:49:09;32.63;;;19.97;;
15155;SDS011;7678;50.058;8.306;2023-02-24T03:51:39;36.70;;;22.03;;
15155;SDS011;7678;50.058;8.306;2023-02-24T03:54:18;35.77;;;21.40;;
15155;SDS011;7678;50.058;8.306;2023-02-24T03:56:59;37.33;;;22.83;;
15155;SDS011;7678;50.058;8.306;2023-02-24T03:59:37;36.10;;;22.07;;
15155;SDS011;7678;50.058;8.306;2023-02-24T04:02:13;34.70;;;20.67;;
15155;SDS011;7678;50.058;8.306;2023-02-24T04:04:47;32.10;;;20.07;;
15155;SDS011;7678;50.058;8.306;2023-02-24T04:07:22;38.63;;;22.60;;
15155;SDS011;7678;50.058;8.306;2023-02-24T04:10:06;33.77;;;20.80;;
15155;SDS011;7678;50.058;8.306;2023-02-24T04:12:38;33.57;;;21.50;;
15155;SDS011;7678;50.058;8.306;2023-02-24T04:15:14;35.30;;;22.43;;
15155;SDS011;7678;50.058;8.306;2023-02-24T04:17:47;38.83;;;22.63;;
15155;SDS011;7678;50.058;8.306;2023-02-24T04:20:18;33.90;;;19.97;;
15155;SDS011;7678;50.058;8.306;2023-02-24T04:22:49;36.50;;;21.70;;
15155;SDS011;7678;50.058;8.306;2023-02-24T04:25:24;36.80;;;22.00;;
15155;SDS011;7678;50.058;8.306;2023-02-24T04:27:54;36.20;;;20.37;;
15155;SDS011;7678;50.058;8.306;2023-02-24T04:30:25;35.17;;;20.27;;
15155;SDS011;7678;50.058;8.306;2023-02-24T04:32:56;35.37;;;22.00;;
15155;SDS011;7678;50.058;8.306;2023-02-24T04:35:25;34.13;;;21.47;;
15155;SDS011;7678;50.058;8.306;2023-02-24T04:37:54;36.07;;;21.87;;
15155;SDS011;7678;50.058;8.306;2023-02-24T04:40:51;38.63;;;21.00;;
15155;SDS011;7678;50.058;8.306;2023-02-24T04:43:20;35.90;;;21.10;;
15155;SDS011;7678;50.058;8.306;2023-02-24T04:45:49;34.93;;;21.03;;
15155;SDS011;7678;50.058;8.306;2023-02-24T04:48:17;37.30;;;21.97;;
15155;SDS011;7678;50.058;8.306;2023-02-24T04:50:45;33.67;;;20.27;;
15155;SDS011;7678;50.058;8.306;2023-02-24T04:53:20;36.13;;;20.40;;
15155;SDS011;7678;50.058;8.306;2023-02-24T04:55:53;36.47;;;20.50;;
15155;SDS011;7678;50.058;8.306;2023-02-24T04:58:22;34.47;;;20.90;;
15155;SDS011;7678;50.058;8.306;2023-02-24T05:00:53;37.07;;;21.30;;
15155;SDS011;7678;50.058;8.306;2023-02-24T05:03:22;36.87;;;21.43;;
15155;SDS011;7678;50.058;8.306;2023-02-24T05:05:54;37.53;;;21.87;;
15155;SDS011;7678;50.058;8.306;2023-02-24T05:08:26;36.07;;;21.57;;
15155;SDS011;7678;50.058;8.306;2023-02-24T05:10:56;37.00;;;22.23;;
15155;SDS011;7678;50.058;8.306;2023-02-24T05:13:27;35.83;;;22.17;;
15155;SDS011;7678;50.058;8.306;2023-02-24T05:15:57;36.47;;;21.57;;
15155;SDS011;7678;50.058;8.306;2023-02-24T05:18:26;37.40;;;21.70;;
15155;SDS011;7678;50.058;8.306;2023-02-24T05:21:03;37.70;;;23.93;;
15155;SDS011;7678;50.058;8.306;2023-02-24T05:23:51;40.57;;;23.00;;
15155;SDS011;7678;50.058;8.306;2023-02-24T05:26:22;36.57;;;23.17;;
15155;SDS011;7678;50.058;8.306;2023-02-24T05:28:51;36.77;;;22.43;;
15155;SDS011;7678;50.058;8.306;2023-02-24T05:31:22;37.47;;;22.83;;
15155;SDS011;7678;50.058;8.306;2023-02-24T05:33:54;38.43;;;23.30;;
15155;SDS011;7678;50.058;8.306;2023-02-24T05:36:24;38.53;;;23.93;;
15155;SDS011;7678;50.058;8.306;2023-02-24T05:38:54;36.23;;;21.47;;
15155;SDS011;7678;50.058;8.306;2023-02-24T05:41:26;35.70;;;21.50;;
15155;SDS011;7678;50.058;8.306;2023-02-24T05:43:58;37.70;;;22.43;;
15155;SDS011;7678;50.058;8.306;2023-02-24T05:46:30;38.77;;;22.33;;
15155;SDS011;7678;50.058;8.306;2023-02-24T05:49:01;35.07;;;22.03;;
15155;SDS011;7678;50.058;8.306;2023-02-24T05:51:34;37.90;;;24.00;;
15155;SDS011;7678;50.058;8.306;2023-02-24T05:54:05;41.83;;;24.57;;
15155;SDS011;7678;50.058;8.306;2023-02-24T05:56:37;37.43;;;23.93;;
15155;SDS011;7678;50.058;8.306;2023-02-24T05:59:07;34.83;;;22.03;;
15155;SDS011;7678;50.058;8.306;2023-02-24T06:01:37;37.93;;;23.37;;
15155;SDS011;7678;50.058;8.306;2023-02-24T06:04:08;39.60;;;23.07;;
15155;SDS011;7678;50.058;8.306;2023-02-24T06:06:36;39.30;;;24.13;;
15155;SDS011;7678;50.058;8.306;2023-02-24T06:09:06;37.27;;;22.37;;
15155;SDS011;7678;50.058;8.306;2023-02-24T06:11:39;37.83;;;25.13;;
15155;SDS011;7678;50.058;8.306;2023-02-24T06:14:11;37.57;;;24.20;;
15155;SDS011;7678;50.058;8.306;2023-02-24T06:16:40;38.70;;;25.20;;
15155;SDS011;7678;50.058;8.306;2023-02-24T06:19:09;42.87;;;26.03;;
15155;SDS011;7678;50.058;8.306;2023-02-24T06:21:39;42.70;;;26.90;;
15155;SDS011;7678;50.058;8.306;2023-02-24T06:24:10;38.40;;;24.40;;
15155;SDS011;7678;50.058;8.306;2023-02-24T06:26:42;38.23;;;25.13;;
15155;SDS011;7678;50.058;8.306;2023-02-24T06:29:11;41.33;;;27.17;;
15155;SDS011;7678;50.058;8.306;2023-02-24T06:31:40;37.53;;;24.90;;
15155;SDS011;7678;50.058;8.306;2023-02-24T06:34:09;38.97;;;25.17;;
15155;SDS011;7678;50.058;8.306;2023-02-24T06:36:40;35.93;;;24.07;;
15155;SDS011;7678;50.058;8.306;2023-02-24T06:39:08;44.17;;;27.10;;
15155;SDS011;7678;50.058;8.306;2023-02-24T06:41:39;40.93;;;26.97;;
15155;SDS011;7678;50.058;8.306;2023-02-24T06:44:09;39.47;;;26.07;;
15155;SDS011;7678;50.058;8.306;2023-02-24T06:46:39;39.10;;;25.20;;
15155;SDS011;7678;50.058;8.306;2023-02-24T06:49:07;39.87;;;26.07;;
15155;SDS011;7678;50.058;8.306;2023-02-24T06:51:35;39.23;;;25.27;;
15155;SDS011;7678;50.058;8.306;2023-02-24T06:54:04;42.50;;;26.20;;
15155;SDS011;7678;50.058;8.306;2023-02-24T06:56:32;38.10;;;25.13;;
15155;SDS011;7678;50.058;8.306;2023-02-24T06:59:05;40.40;;;26.07;;
15155;SDS011;7678;50.058;8.306;2023-02-24T07:01:37;38.37;;;25.17;;
15155;SDS011;7678;50.058;8.306;2023-02-24T07:04:10;37.40;;;24.17;;
15155;SDS011;7678;50.058;8.306;2023-02-24T07:06:47;37.30;;;24.97;;
15155;SDS011;7678;50.058;8.306;2023-02-24T07:09:19;40.57;;;24.33;;
15155;SDS011;7678;50.058;8.306;2023-02-24T07:11:49;33.40;;;23.23;;
15155;SDS011;7678;50.058;8.306;2023-02-24T07:14:20;39.10;;;24.77;;
15155;SDS011;7678;50.058;8.306;2023-02-24T07:16:50;34.27;;;24.33;;
15155;SDS011;7678;50.058;8.306;2023-02-24T07:19:21;38.07;;;24.37;;
15155;SDS011;7678;50.058;8.306;2023-02-24T07:21:53;33.57;;;22.57;;
15155;SDS011;7678;50.058;8.306;2023-02-24T07:24:26;36.87;;;22.87;;
15155;SDS011;7678;50.058;8.306;2023-02-24T07:27:01;32.53;;;22.10;;
15155;SDS011;7678;50.058;8.306;2023-02-24T07:29:33;34.10;;;21.97;;
15155;SDS011;7678;50.058;8.306;2023-02-24T07:32:04;34.47;;;21.77;;
15155;SDS011;7678;50.058;8.306;2023-02-24T07:34:34;34.23;;;21.87;;
15155;SDS011;7678;50.058;8.306;2023-02-24T07:37:05;32.57;;;21.70;;
15155;SDS011;7678;50.058;8.306;2023-02-24T07:39:35;31.03;;;20.63;;
15155;SDS011;7678;50.058;8.306;2023-02-24T07:42:04;34.40;;;22.97;;
15155;SDS011;7678;50.058;8.306;2023-02-24T07:44:35;32.63;;;22.37;;
15155;SDS011;7678;50.058;8.306;2023-02-24T07:47:04;33.17;;;21.77;;
15155;SDS011;7678;50.058;8.306;2023-02-24T07:49:34;33.83;;;21.87;;
15155;SDS011;7678;50.058;8.306;2023-02-24T07:52:04;33.80;;;22.50;;
15155;SDS011;7678;50.058;8.306;2023-02-24T07:54:33;31.43;;;20.73;;
15155;SDS011;7678;50.058;8.306;2023-02-24T07:57:02;32.93;;;22.33;;
15155;SDS011;7678;50.058;8.306;2023-02-24T07:59:40;34.50;;;21.77;;
15155;SDS011;7678;50.058;8.306;2023-02-24T08:02:12;30.90;;;20.13;;
15155;SDS011;7678;50.058;8.306;2023-02-24T08:04:41;31.97;;;21.33;;
15155;SDS011;7678;50.058;8.306;2023-02-24T08:07:18;33.10;;;20.90;;
15155;SDS011;7678;50.058;8.306;2023-02-24T08:09:50;30.83;;;20.93;;
15155;SDS011;7678;50.058;8.306;2023-02-24T08:12:50;31.70;;;19.73;;
15155;SDS011;7678;50.058;8.306;2023-02-24T08:15:22;32.87;;;20.57;;
15155;SDS011;7678;50.058;8.306;2023-02-24T08:18:00;32.23;;;20.80;;
15155;SDS011;7678;50.058;8.306;2023-02-24T08:28:56;28.77;;;19.93;;
15155;SDS011;7678;50.058;8.306;2023-02-24T08:30:57;30.87;;;19.87;;
15155;SDS011;7678;50.058;8.306;2023-02-24T08:33:25;27.67;;;18.90;;
15155;SDS011;7678;50.058;8.306;2023-02-24T08:35:55;34.73;;;20.33;;
15155;SDS011;7678;50.058;8.306;2023-02-24T08:38:28;31.33;;;19.97;;
15155;SDS011;7678;50.058;8.306;2023-02-24T08:41:06;30.00;;;18.03;;
15155;SDS011;7678;50.058;8.306;2023-02-24T08:43:42;27.07;;;19.10;;
15155;SDS011;7678;50.058;8.306;2023-02-24T08:46:14;31.57;;;18.83;;
15155;SDS011;7678;50.058;8.306;2023-02-24T08:48:46;29.83;;;19.30;;
15155;SDS011;7678;50.058;8.306;2023-02-24T08:51:17;30.73;;;19.57;;
15155;SDS011;7678;50.058;8.306;2023-02-24T08:53:49;27.47;;;18.93;;
15155;SDS011;7678;50.058;8.306;2023-02-24T08:56:21;32.47;;;19.70;;
15155;SDS011;7678;50.058;8.306;2023-02-24T08:58:52;29.03;;;18.63;;
15155;SDS011;7678;50.058;8.306;2023-02-24T09:01:33;30.07;;;18.87;;
15155;SDS011;7678;50.058;8.306;2023-02-24T09:04:03;33.07;;;20.53;;
15155;SDS011;7678;50.058;8.306;2023-02-24T09:06:35;29.93;;;18.87;;
15155;SDS011;7678;50.058;8.306;2023-02-24T09:09:10;29.57;;;19.23;;
15155;SDS011;7678;50.058;8.306;2023-02-24T09:11:47;27.50;;;18.37;;
15155;SDS011;7678;50.058;8.306;2023-02-24T09:14:22;31.03;;;19.60;;
15155;SDS011;7678;50.058;8.306;2023-02-24T09:16:56;29.30;;;19.73;;
15155;SDS011;7678;50.058;8.306;2023-02-24T09:19:37;27.57;;;19.10;;
15155;SDS011;7678;50.058;8.306;2023-02-24T09:22:45;33.67;;;20.47;;
15155;SDS011;7678;50.058;8.306;2023-02-24T09:32:41;27.90;;;19.37;;
15155;SDS011;7678;50.058;8.306;2023-02-24T09:35:14;27.67;;;18.73;;
15155;SDS011;7678;50.058;8.306;2023-02-24T09:37:52;29.23;;;17.87;;
15155;SDS011;7678;50.058;8.306;2023-02-24T09:40:22;25.87;;;17.33;;
15155;SDS011;7678;50.058;8.306;2023-02-24T09:43:19;31.97;;;15.93;;
15155;SDS011;7678;50.058;8.306;2023-02-24T09:46:12;24.07;;;16.20;;
15155;SDS011;7678;50.058;8.306;2023-02-24T09:48:44;24.83;;;15.37;;
15155;SDS011;7678;50.058;8.306;2023-02-24T09:51:29;21.97;;;13.67;;
15155;SDS011;7678;50.058;8.306;2023-02-24T09:54:32;16.50;;;11.90;;
15155;SDS011;7678;50.058;8.306;2023-02-24T09:57:09;18.27;;;11.90;;
15155;SDS011;7678;50.058;8.306;2023-02-24T09:59:53;17.10;;;12.33;;
15155;SDS011;7678;50.058;8.306;2023-02-24T11:01:43;15.63;;;10.87;;
15155;SDS011;7678;50.058;8.306;2023-02-24T11:04:30;16.27;;;10.87;;
15155;SDS011;7678;50.058;8.306;2023-02-24T11:07:19;15.97;;;10.83;;
15155;SDS011;7678;50.058;8.306;2023-02-24T11:10:03;18.30;;;11.07;;
15155;SDS011;7678;50.058;8.306;2023-02-24T11:12:57;16.43;;;10.80;;
15155;SDS011;7678;50.058;8.306;2023-02-24T11:15:48;15.57;;;10.77;;
15155;SDS011;7678;50.058;8.306;2023-02-24T11:18:57;16.20;;;11.33;;
15155;SDS011;7678;50.058;8.306;2023-02-24T11:21:29;16.17;;;11.40;;
15155;SDS011;7678;50.058;8.306;2023-02-24T11:24:09;18.23;;;11.93;;
15155;SDS011;7678;50.058;8.306;2023-02-24T11:26:44;17.53;;;12.67;;
15155;SDS011;7678;50.058;8.306;2023-02-24T11:29:25;19.43;;;12.47;;
15155;SDS011;7678;50.058;8.306;2023-02-24T11:35:18;19.10;;;12.37;;
15155;SDS011;7678;50.058;8.306;2023-02-24T11:37:58;17.67;;;11.63;;
15155;SDS011;7678;50.058;8.306;2023-02-24T11:40:42;18.47;;;12.30;;
15155;SDS011;7678;50.058;8.306;2023-02-24T11:43:25;17.47;;;12.20;;
15155;SDS011;7678;50.058;8.306;2023-02-24T11:46:01;16.03;;;10.63;;
15155;SDS011;7678;50.058;8.306;2023-02-24T11:48:42;16.10;;;11.10;;
15155;SDS011;7678;50.058;8.306;2023-02-24T11:51:17;16.40;;;11.90;;
15155;SDS011;7678;50.058;8.306;2023-02-24T11:53:59;17.90;;;12.13;;
15155;SDS011;7678;50.058;8.306;2023-02-24T11:56:41;18.63;;;11.47;;
15155;SDS011;7678;50.058;8.306;2023-02-24T11:59:14;17.23;;;11.87;;
15155;SDS011;7678;50.058;8.306;2023-02-24T12:02:01;18.70;;;12.63;;
15155;SDS011;7678;50.058;8.306;2023-02-24T12:04:44;21.70;;;12.60;;
15155;SDS011;7678;50.058;8.306;2023-02-24T12:07:27;16.67;;;11.73;;
15155;SDS011;7678;50.058;8.306;2023-02-24T12:10:02;18.93;;;11.63;;
15155;SDS011;7678;50.058;8.306;2023-02-24T12:12:46;15.23;;;11.13;;
15155;SDS011;7678;50.058;8.306;2023-02-24T12:15:33;18.20;;;12.20;;
15155;SDS011;7678;50.058;8.306;2023-02-24T12:18:25;16.10;;;11.50;;
15155;SDS011;7678;50.058;8.306;2023-02-24T12:21:10;18.70;;;11.27;;
15155;SDS011;7678;50.058;8.306;2023-02-24T12:23:51;16.63;;;10.83;;
15155;SDS011;7678;50.058;8.306;2023-02-24T12:26:21;18.83;;;12.83;;
15155;SDS011;7678;50.058;8.306;2023-02-24T12:29:00;17.30;;;10.53;;
15155;SDS011;7678;50.058;8.306;2023-02-24T12:31:46;17.87;;;10.20;;
15155;SDS011;7678;50.058;8.306;2023-02-24T12:34:27;16.43;;;10.10;;
15155;SDS011;7678;50.058;8.306;2023-02-24T12:37:13;12.60;;;8.33;;
15155;SDS011;7678;50.058;8.306;2023-02-24T12:39:58;12.77;;;7.93;;
15155;SDS011;7678;50.058;8.306;2023-02-24T12:42:39;11.90;;;8.27;;
15155;SDS011;7678;50.058;8.306;2023-02-24T12:45:20;10.57;;;7.33;;
15155;SDS011;7678;50.058;8.306;2023-02-24T12:48:01;10.27;;;7.23;;
15155;SDS011;7678;50.058;8.306;2023-02-24T12:50:43;8.87;;;6.80;;
15155;SDS011;7678;50.058;8.306;2023-02-24T12:53:16;10.40;;;6.87;;
15155;SDS011;7678;50.058;8.306;2023-02-24T12:55:57;11.40;;;7.33;;
15155;SDS011;7678;50.058;8.306;2023-02-24T12:58:41;10.03;;;7.07;;
15155;SDS011;7678;50.058;8.306;2023-02-24T13:01:12;8.50;;;6.63;;
15155;SDS011;7678;50.058;8.306;2023-02-24T13:03:54;11.70;;;7.10;;
15155;SDS011;7678;50.058;8.306;2023-02-24T13:09:26;9.83;;;6.83;;
15155;SDS011;7678;50.058;8.306;2023-02-24T13:12:08;10.73;;;7.83;;
15155;SDS011;7678;50.058;8.306;2023-02-24T13:14:42;9.30;;;6.27;;
15155;SDS011;7678;50.058;8.306;2023-02-24T13:17:15;10.23;;;7.10;;
15155;SDS011;7678;50.058;8.306;2023-02-24T13:19:47;8.80;;;6.57;;
15155;SDS011;7678;50.058;8.306;2023-02-24T13:22:25;10.23;;;6.63;;
15155;SDS011;7678;50.058;8.306;2023-02-24T13:25:08;12.47;;;7.33;;
15155;SDS011;7678;50.058;8.306;2023-02-24T13:27:52;12.70;;;8.73;;
15155;SDS011;7678;50.058;8.306;2023-02-24T13:30:30;12.33;;;8.97;;
15155;SDS011;7678;50.058;8.306;2023-02-24T13:33:05;14.17;;;9.30;;
15155;SDS011;7678;50.058;8.306;2023-02-24T13:35:50;18.70;;;12.73;;
15155;SDS011;7678;50.058;8.306;2023-02-24T13:38:34;15.87;;;10.63;;
15155;SDS011;7678;50.058;8.306;2023-02-24T13:41:05;15.73;;;10.67;;
15155;SDS011;7678;50.058;8.306;2023-02-24T13:43:36;16.53;;;10.30;;
15155;SDS011;7678;50.058;8.306;2023-02-24T13:46:15;14.10;;;10.27;;
15155;SDS011;7678;50.058;8.306;2023-02-24T13:48:56;14.97;;;10.13;;
15155;SDS011;7678;50.058;8.306;2023-02-24T13:51:41;16.23;;;10.67;;
15155;SDS011;7678;50.058;8.306;2023-02-24T13:54:43;14.93;;;10.23;;
15155;SDS011;7678;50.058;8.306;2023-02-24T13:57:36;16.23;;;10.60;;
15155;SDS011;7678;50.058;8.306;2023-02-24T14:00:30;17.20;;;10.87;;
15155;SDS011;7678;50.058;8.306;2023-02-24T14:03:21;15.47;;;10.53;;
15155;SDS011;7678;50.058;8.306;2023-02-24T14:05:55;14.83;;;9.67;;
15155;SDS011;7678;50.058;8.306;2023-02-24T14:08:34;13.87;;;10.03;;
15155;SDS011;7678;50.058;8.306;2023-02-24T14:11:09;15.10;;;10.97;;
15155;SDS011;7678;50.058;8.306;2023-02-24T14:13:43;15.27;;;9.93;;
15155;SDS011;7678;50.058;8.306;2023-02-24T14:16:26;15.33;;;9.17;;
15155;SDS011;7678;50.058;8.306;2023-02-24T14:19:02;13.77;;;8.73;;
15155;SDS011;7678;50.058;8.306;2023-02-24T14:21:46;13.67;;;8.07;;
15155;SDS011;7678;50.058;8.306;2023-02-24T14:24:31;15.03;;;9.57;;
15155;SDS011;7678;50.058;8.306;2023-02-24T14:27:05;14.17;;;8.60;;
15155;SDS011;7678;50.058;8.306;2023-02-24T14:29:34;12.17;;;9.03;;
15155;SDS011;7678;50.058;8.306;2023-02-24T14:32:17;16.03;;;10.60;;
15155;SDS011;7678;50.058;8.306;2023-02-24T14:34:50;17.43;;;8.50;;
15155;SDS011;7678;50.058;8.306;2023-02-24T14:37:47;9.97;;;6.93;;
15155;SDS011;7678;50.058;8.306;2023-02-24T14:40:56;11.07;;;7.27;;
15155;SDS011;7678;50.058;8.306;2023-02-24T14:50:36;9.00;;;6.40;;
15155;SDS011;7678;50.058;8.306;2023-02-24T14:53:42;9.20;;;6.43;;
15155;SDS011;7678;50.058;8.306;2023-02-24T14:56:47;10.70;;;6.60;;
15155;SDS011;7678;50.058;8.306;2023-02-24T15:00:00;11.13;;;7.40;;
15155;SDS011;7678;50.058;8.306;2023-02-24T15:03:34;13.93;;;9.30;;
15155;SDS011;7678;50.058;8.306;2023-02-24T15:07:04;17.70;;;9.67;;
15155;SDS011;7678;50.058;8.306;2023-02-24T15:54:19;6.27;;;4.40;;
15155;SDS011;7678;50.058;8.306;2023-02-24T15:57:08;5.77;;;4.00;;
15155;SDS011;7678;50.058;8.306;2023-02-24T15:59:45;7.63;;;4.70;;
15155;SDS011;7678;50.058;8.306;2023-02-24T16:02:27;6.00;;;4.13;;
15155;SDS011;7678;50.058;8.306;2023-02-24T16:05:05;7.90;;;4.70;;
15155;SDS011;7678;50.058;8.306;2023-02-24T16:07:48;6.27;;;4.40;;
15155;SDS011;7678;50.058;8.306;2023-02-24T16:10:31;6.67;;;4.47;;
15155;SDS011;7678;50.058;8.306;2023-02-24T16:13:04;7.70;;;4.30;;
15155;SDS011;7678;50.058;8.306;2023-02-24T16:16:08;5.13;;;3.63;;
15155;SDS011;7678;50.058;8.306;2023-02-24T16:18:45;6.10;;;3.93;;
15155;SDS011;7678;50.058;8.306;2023-02-24T16:24:05;6.73;;;4.37;;
15155;SDS011;7678;50.058;8.306;2023-02-24T16:26:50;7.33;;;4.30;;
15155;SDS011;7678;50.058;8.306;2023-02-24T16:29:37;7.07;;;4.10;;
15155;SDS011;7678;50.058;8.306;2023-02-24T16:32:31;8.43;;;3.93;;
15155;SDS011;7678;50.058;8.306;2023-02-24T16:35:17;8.00;;;4.00;;
15155;SDS011;7678;50.058;8.306;2023-02-24T16:38:15;6.23;;;3.73;;
15155;SDS011;7678;50.058;8.306;2023-02-24T16:43:43;6.57;;;3.50;;
15155;SDS011;7678;50.058;8.306;2023-02-24T16:49:58;5.87;;;3.60;;
15155;SDS011;7678;50.058;8.306;2023-02-24T16:52:50;9.63;;;3.67;;
15155;SDS011;7678;50.058;8.306;2023-02-24T16:55:40;8.57;;;4.30;;
15155;SDS011;7678;50.058;8.306;2023-02-24T16:58:35;4.40;;;3.43;;
15155;SDS011;7678;50.058;8.306;2023-02-24T17:01:09;5.53;;;3.67;;
15155;SDS011;7678;50.058;8.306;2023-02-24T17:07:23;8.07;;;3.77;;
15155;SDS011;7678;50.058;8.306;2023-02-24T17:09:52;8.27;;;4.00;;
15155;SDS011;7678;50.058;8.306;2023-02-24T17:12:43;7.10;;;3.90;;
15155;SDS011;7678;50.058;8.306;2023-02-24T17:15:17;4.77;;;3.50;;
15155;SDS011;7678;50.058;8.306;2023-02-24T17:17:48;7.17;;;4.10;;
15155;SDS011;7678;50.058;8.306;2023-02-24T17:20:17;6.30;;;3.03;;
15155;SDS011;7678;50.058;8.306;2023-02-24T17:22:46;7.73;;;3.80;;
15155;SDS011;7678;50.058;8.306;2023-02-24T17:25:18;5.53;;;3.60;;
15155;SDS011;7678;50.058;8.306;2023-02-24T17:27:48;5.47;;;4.07;;
15155;SDS011;7678;50.058;8.306;2023-02-24T17:30:29;5.60;;;3.50;;
15155;SDS011;7678;50.058;8.306;2023-02-24T17:33:06;5.53;;;3.50;;
15155;SDS011;7678;50.058;8.306;2023-02-24T17:35:48;8.20;;;3.83;;
15155;SDS011;7678;50.058;8.306;2023-02-24T17:42:15;8.40;;;3.77;;
15155;SDS011;7678;50.058;8.306;2023-02-24T17:49:06;4.70;;;3.50;;
15155;SDS011;7678;50.058;8.306;2023-02-24T17:51:57;5.33;;;3.47;;
15155;SDS011;7678;50.058;8.306;2023-02-24T17:57:49;6.37;;;3.60;;
15155;SDS011;7678;50.058;8.306;2023-02-24T18:00:40;6.83;;;4.27;;
15155;SDS011;7678;50.058;8.306;2023-02-24T18:04:15;8.53;;;5.07;;
15155;SDS011;7678;50.058;8.306;2023-02-24T18:07:05;7.17;;;5.10;;
15155;SDS011;7678;50.058;8.306;2023-02-24T18:10:07;6.47;;;4.40;;
15155;SDS011;7678;50.058;8.306;2023-02-24T18:12:53;9.50;;;4.87;;
15155;SDS011;7678;50.058;8.306;2023-02-24T18:15:49;8.60;;;4.57;;
15155;SDS011;7678;50.058;8.306;2023-02-24T18:18:49;4.97;;;3.90;;